Wayland, Ohio
Current Conditions -  °F | °C
As of 5:38 PM on Friday 24 Oct 2014 (Local Time) from KPOV Reporting Station
Scattered Clouds Scattered Clouds  
Wind Chill: 60°   Ceiling: Unl
Heat Index: 60°   Visibility: 10mi
Dew Point: 35°   Wind: 3mph
Humidity: 39%   Direction: 250°WSW
Pressure: 30"   Gusts: NA
Location:  41.16°N, 81.07°W
Report Text: KPOV 242138Z AUTO 25003KT 10SM SCT050 15/02 A3000 RMK AO2 T01530015
Loading
Personal Weather Stations






























Interactive Weather Map New forecast layout! Learn more

10-Day Weather Forecast

Advertisements
Track Severe Weather on mobile